createdAt,value
2022-12-31T00:02:23.463Z,17.05
2022-12-31T00:04:50.531Z,14.85
2022-12-31T00:07:17.553Z,16.90
2022-12-31T00:09:44.476Z,15.82
2022-12-31T00:12:11.587Z,13.93
2022-12-31T00:14:38.766Z,12.80
2022-12-31T00:17:05.767Z,12.25
2022-12-31T00:19:32.845Z,13.90
2022-12-31T00:21:59.746Z,16.95
2022-12-31T00:24:31.126Z,15.25
2022-12-31T00:26:58.187Z,12.38
2022-12-31T00:29:25.140Z,14.25
2022-12-31T00:31:52.180Z,12.43
2022-12-31T00:34:19.144Z,13.73
2022-12-31T00:36:46.279Z,16.13
2022-12-31T00:39:13.206Z,16.23
2022-12-31T00:41:40.669Z,15.57
2022-12-31T00:44:07.682Z,13.13
2022-12-31T00:49:02.229Z,18.02
2022-12-31T00:51:29.723Z,15.57
2022-12-31T00:53:57.386Z,14.05
2022-12-31T00:56:27.178Z,19.13
2022-12-31T00:58:54.497Z,14.60
2022-12-31T01:01:23.919Z,16.85
2022-12-31T01:03:53.477Z,15.93
2022-12-31T01:06:20.858Z,11.65
2022-12-31T01:08:49.287Z,17.58
2022-12-31T01:11:19.581Z,14.13
2022-12-31T01:13:51.941Z,16.95
2022-12-31T01:16:21.609Z,14.48
2022-12-31T01:18:49.340Z,13.70
2022-12-31T01:21:17.214Z,12.43
2022-12-31T01:23:44.268Z,12.98
2022-12-31T01:26:13.748Z,13.18
2022-12-31T01:28:40.853Z,14.55
2022-12-31T01:31:10.335Z,15.25
2022-12-31T01:33:37.549Z,16.23
2022-12-31T01:36:06.531Z,13.60
2022-12-31T01:38:34.665Z,15.65
2022-12-31T01:41:02.220Z,15.70
2022-12-31T01:43:47.821Z,12.07
2022-12-31T01:46:22.001Z,14.27
2022-12-31T01:48:52.027Z,14.25
2022-12-31T01:51:19.453Z,14.48
2022-12-31T01:53:46.831Z,12.50
2022-12-31T01:56:14.220Z,10.80
2022-12-31T01:58:44.726Z,10.95
2022-12-31T02:01:20.108Z,13.15
2022-12-31T02:03:47.261Z,14.60
2022-12-31T02:06:19.039Z,14.30
2022-12-31T02:11:34.549Z,10.65
2022-12-31T02:14:08.745Z,11.40
2022-12-31T02:16:43.611Z,13.82
2022-12-31T02:19:48.258Z,12.20
2022-12-31T02:22:52.567Z,12.07
2022-12-31T02:25:23.939Z,12.05
2022-12-31T02:28:09.427Z,12.63
2022-12-31T02:30:36.960Z,11.85
2022-12-31T02:33:27.051Z,11.10
2022-12-31T02:36:04.045Z,10.88
2022-12-31T02:38:37.395Z,13.18
2022-12-31T02:41:04.709Z,11.15
2022-12-31T02:43:31.779Z,9.18
2022-12-31T02:46:20.663Z,11.85
2022-12-31T02:49:06.627Z,10.32
2022-12-31T02:51:54.788Z,14.65
2022-12-31T02:54:39.259Z,11.68
2022-12-31T02:57:18.249Z,10.10
2022-12-31T03:00:12.040Z,11.73
2022-12-31T03:02:41.312Z,11.75
2022-12-31T03:05:09.448Z,7.90
2022-12-31T03:07:36.374Z,10.75
2022-12-31T03:10:03.525Z,10.75
2022-12-31T03:12:51.579Z,10.30
2022-12-31T03:15:34.681Z,8.27
2022-12-31T03:18:06.773Z,7.47
2022-12-31T03:21:10.657Z,8.93
2022-12-31T03:23:41.003Z,10.75
2022-12-31T03:26:11.135Z,8.75
2022-12-31T03:28:48.036Z,10.55
2022-12-31T03:31:16.527Z,10.85
2022-12-31T03:33:43.541Z,8.23
2022-12-31T03:36:14.970Z,9.25
2022-12-31T03:38:42.338Z,8.82
2022-12-31T03:41:10.776Z,9.35
2022-12-31T03:43:37.986Z,10.75
2022-12-31T03:46:05.052Z,8.20
2022-12-31T03:48:32.083Z,7.70
2022-12-31T03:50:58.935Z,12.18
2022-12-31T03:53:26.424Z,10.45
2022-12-31T03:55:54.012Z,9.38
2022-12-31T03:58:21.727Z,9.50
2022-12-31T04:00:48.963Z,8.45
2022-12-31T04:03:16.140Z,7.65
2022-12-31T04:05:43.127Z,9.73
2022-12-31T04:08:10.103Z,9.77
2022-12-31T04:10:37.157Z,11.13
2022-12-31T04:13:04.999Z,11.23
2022-12-31T04:15:32.193Z,9.20
2022-12-31T04:17:59.187Z,13.25
2022-12-31T04:20:26.805Z,10.40
2022-12-31T04:22:53.900Z,14.10
2022-12-31T04:25:20.838Z,12.85
2022-12-31T04:27:47.887Z,13.15
2022-12-31T04:30:14.928Z,11.55
2022-12-31T04:32:42.215Z,11.57
2022-12-31T04:35:10.178Z,14.82
2022-12-31T04:37:37.195Z,11.82
2022-12-31T04:40:06.669Z,13.68
2022-12-31T04:42:34.659Z,13.43
2022-12-31T04:45:01.683Z,13.00
2022-12-31T04:47:28.839Z,14.43
2022-12-31T04:49:55.868Z,18.27
2022-12-31T04:52:23.089Z,14.75
2022-12-31T04:54:50.060Z,13.15
2022-12-31T04:57:17.033Z,16.83
2022-12-31T04:59:44.018Z,13.63
2022-12-31T05:02:11.318Z,15.50
2022-12-31T05:04:38.527Z,14.65
2022-12-31T05:07:05.592Z,13.95
2022-12-31T05:09:32.494Z,14.52
2022-12-31T05:11:59.490Z,17.02
2022-12-31T05:14:26.504Z,12.93
2022-12-31T05:16:53.874Z,13.43
2022-12-31T05:19:20.842Z,13.13
2022-12-31T05:22:07.663Z,14.43
2022-12-31T05:24:34.774Z,14.40
2022-12-31T05:27:02.024Z,12.73
2022-12-31T05:29:29.008Z,14.02
2022-12-31T05:31:55.856Z,14.05
2022-12-31T05:34:22.929Z,14.73
2022-12-31T05:36:49.888Z,15.10
2022-12-31T05:39:16.939Z,14.98
2022-12-31T05:41:43.799Z,14.32
2022-12-31T05:44:11.208Z,15.07
2022-12-31T05:46:38.123Z,15.90
2022-12-31T05:49:05.114Z,17.02
2022-12-31T05:51:32.170Z,16.02
2022-12-31T05:53:59.280Z,14.77
2022-12-31T05:56:26.341Z,15.52
2022-12-31T05:58:53.200Z,14.23
2022-12-31T06:01:20.504Z,15.10
2022-12-31T06:03:47.744Z,18.20
2022-12-31T06:06:14.779Z,15.05
2022-12-31T06:08:41.661Z,14.38
2022-12-31T06:11:08.560Z,17.55
2022-12-31T06:13:35.569Z,15.32
2022-12-31T06:16:07.811Z,14.82
2022-12-31T06:18:35.017Z,14.15
2022-12-31T06:21:04.189Z,14.20
2022-12-31T06:23:31.546Z,14.25
2022-12-31T06:26:02.889Z,15.48
2022-12-31T06:28:29.857Z,18.17
2022-12-31T06:31:04.323Z,15.95
2022-12-31T06:33:31.516Z,13.63
2022-12-31T06:36:00.298Z,13.63
2022-12-31T06:38:28.811Z,13.48
2022-12-31T06:40:56.007Z,13.30
2022-12-31T06:43:23.286Z,16.98
2022-12-31T06:45:50.151Z,14.10
2022-12-31T06:48:17.128Z,14.10
2022-12-31T06:50:44.031Z,13.75
2022-12-31T06:53:11.883Z,13.05
2022-12-31T06:55:39.133Z,12.57
2022-12-31T06:58:06.402Z,14.02
2022-12-31T07:00:33.882Z,15.65
2022-12-31T07:03:11.071Z,12.65
2022-12-31T07:06:16.847Z,11.90
2022-12-31T07:08:49.683Z,11.05
2022-12-31T07:11:25.748Z,11.50
2022-12-31T07:13:59.331Z,11.10
2022-12-31T07:16:32.470Z,11.25
2022-12-31T07:19:19.761Z,12.20
2022-12-31T07:21:48.983Z,11.95
2022-12-31T07:24:16.447Z,10.70
2022-12-31T07:26:57.346Z,10.30
2022-12-31T07:29:42.856Z,10.82
2022-12-31T07:32:09.876Z,11.52
2022-12-31T07:34:48.516Z,9.88
2022-12-31T07:37:44.502Z,10.65
2022-12-31T07:40:18.989Z,8.93
2022-12-31T07:43:07.782Z,10.23
2022-12-31T07:45:38.248Z,9.82
2022-12-31T07:48:19.348Z,8.82
2022-12-31T07:50:46.461Z,9.05
2022-12-31T07:53:13.802Z,8.85
2022-12-31T07:55:40.732Z,9.05
2022-12-31T07:58:24.462Z,9.85
2022-12-31T08:00:53.090Z,9.07
2022-12-31T08:03:56.857Z,9.38
2022-12-31T08:06:54.809Z,9.18
2022-12-31T08:09:33.804Z,8.55
2022-12-31T08:12:02.091Z,8.65
2022-12-31T08:14:29.919Z,8.90
2022-12-31T08:16:57.792Z,9.70
2022-12-31T08:19:34.323Z,8.70
2022-12-31T08:22:17.992Z,9.38
2022-12-31T08:24:54.235Z,9.45
2022-12-31T08:27:30.877Z,8.95
2022-12-31T08:30:18.372Z,8.30
2022-12-31T08:33:00.524Z,8.02
2022-12-31T08:35:43.810Z,8.30
2022-12-31T08:38:32.340Z,8.43
2022-12-31T08:41:17.207Z,7.80
2022-12-31T08:44:07.527Z,8.18
2022-12-31T08:47:02.782Z,7.78
2022-12-31T08:49:32.947Z,6.93
2022-12-31T08:52:01.000Z,7.07
2022-12-31T08:54:29.427Z,7.20
2022-12-31T08:57:19.296Z,7.35
2022-12-31T08:59:55.371Z,7.70
2022-12-31T09:02:25.490Z,7.90
2022-12-31T09:05:26.052Z,7.10
2022-12-31T09:08:14.755Z,7.45
2022-12-31T09:10:49.204Z,7.38
2022-12-31T09:13:25.780Z,6.28
2022-12-31T09:16:08.255Z,7.57
2022-12-31T09:18:39.744Z,6.75
2022-12-31T09:21:10.122Z,7.15
2022-12-31T09:23:37.426Z,6.32
2022-12-31T09:26:29.429Z,9.05
2022-12-31T09:29:17.701Z,6.70
2022-12-31T09:31:47.506Z,7.43
2022-12-31T09:34:25.873Z,7.13
2022-12-31T09:37:00.186Z,10.43
2022-12-31T09:39:40.500Z,7.72
2022-12-31T09:42:35.501Z,6.60
2022-12-31T09:45:24.303Z,6.90
2022-12-31T09:48:29.003Z,7.13
2022-12-31T09:51:33.446Z,7.95
2022-12-31T09:54:21.767Z,7.82
2022-12-31T09:57:10.602Z,7.75
2022-12-31T09:59:54.805Z,8.60
2022-12-31T10:02:43.446Z,9.65
2022-12-31T10:05:47.872Z,8.70
2022-12-31T10:08:39.364Z,8.32
2022-12-31T10:11:15.033Z,8.50
2022-12-31T10:14:26.807Z,8.48
2022-12-31T10:17:09.479Z,8.88
2022-12-31T10:20:14.643Z,8.32
2022-12-31T10:22:53.831Z,8.57
2022-12-31T10:25:39.915Z,9.30
2022-12-31T10:28:15.959Z,9.60
2022-12-31T10:30:56.374Z,10.10
2022-12-31T10:33:46.054Z,8.57
2022-12-31T10:36:23.872Z,9.93
2022-12-31T10:39:12.839Z,10.05
2022-12-31T10:42:10.265Z,10.20
2022-12-31T10:44:43.252Z,10.93
2022-12-31T10:47:45.823Z,19.92
2022-12-31T10:50:21.914Z,16.42
2022-12-31T10:53:27.938Z,14.68
2022-12-31T10:55:57.778Z,10.65
2022-12-31T10:58:30.559Z,18.08
2022-12-31T11:01:35.331Z,30.73
2022-12-31T11:04:33.537Z,18.17
2022-12-31T11:07:38.287Z,17.23
2022-12-31T11:10:40.472Z,25.27
2022-12-31T11:13:29.146Z,18.60
2022-12-31T11:16:14.694Z,24.20
2022-12-31T11:19:17.013Z,13.25
2022-12-31T11:22:08.816Z,10.50
2022-12-31T11:24:57.339Z,28.58
2022-12-31T11:27:49.320Z,24.88
2022-12-31T11:30:27.846Z,20.20
2022-12-31T11:33:07.941Z,12.35
2022-12-31T11:36:12.297Z,13.43
2022-12-31T11:38:52.943Z,19.05
2022-12-31T11:41:28.960Z,17.38
2022-12-31T11:44:15.021Z,17.90
2022-12-31T11:47:03.711Z,12.90
2022-12-31T11:49:44.180Z,13.52
2022-12-31T11:52:42.152Z,10.32
2022-12-31T11:55:46.627Z,13.27
2022-12-31T11:58:19.573Z,12.88
2022-12-31T12:01:05.204Z,9.00
2022-12-31T12:03:32.708Z,7.93
2022-12-31T12:05:59.777Z,8.10
2022-12-31T12:08:27.692Z,10.00
2022-12-31T12:11:04.028Z,10.55
2022-12-31T12:13:31.412Z,6.82
2022-12-31T12:16:00.405Z,5.20
2022-12-31T12:18:37.157Z,4.65
2022-12-31T12:21:12.552Z,4.78
2022-12-31T12:23:40.425Z,6.97
2022-12-31T12:26:07.847Z,5.57
2022-12-31T12:28:44.702Z,4.85
2022-12-31T12:31:22.624Z,5.85
2022-12-31T12:33:51.105Z,5.00
2022-12-31T12:36:20.422Z,4.00
2022-12-31T12:38:47.702Z,4.28
2022-12-31T12:41:25.212Z,4.50
2022-12-31T12:44:16.931Z,4.68
2022-12-31T12:46:49.019Z,4.85
2022-12-31T12:49:32.680Z,5.10
2022-12-31T12:52:33.469Z,5.45
2022-12-31T12:55:18.343Z,5.95
2022-12-31T12:58:23.111Z,6.15
2022-12-31T13:01:15.161Z,6.80
2022-12-31T13:07:26.561Z,9.68
2022-12-31T13:10:03.900Z,11.35
2022-12-31T13:13:22.173Z,10.73
2022-12-31T13:15:37.488Z,9.90
2022-12-31T13:18:29.087Z,8.57
2022-12-31T13:21:00.558Z,9.70
2022-12-31T13:23:40.126Z,8.10
2022-12-31T13:26:28.456Z,9.95
2022-12-31T13:28:56.343Z,9.20
2022-12-31T13:31:34.088Z,9.93
2022-12-31T13:34:29.262Z,11.02
2022-12-31T13:36:59.328Z,12.65
2022-12-31T13:39:29.902Z,11.05
2022-12-31T13:42:09.688Z,14.32
2022-12-31T13:44:40.177Z,18.10
2022-12-31T13:47:12.940Z,17.60
2022-12-31T13:49:39.944Z,15.45
2022-12-31T13:52:44.365Z,13.63
2022-12-31T13:55:18.963Z,12.30
2022-12-31T13:58:09.790Z,12.23
2022-12-31T14:00:57.382Z,12.65
2022-12-31T14:03:49.806Z,10.98
2022-12-31T14:09:01.196Z,10.68
2022-12-31T14:11:49.751Z,12.27
2022-12-31T14:14:42.391Z,11.40
2022-12-31T14:17:39.406Z,11.07
2022-12-31T14:20:45.058Z,15.35
2022-12-31T14:23:26.908Z,12.07
2022-12-31T14:26:17.085Z,12.45
2022-12-31T14:29:15.625Z,14.55
2022-12-31T14:31:49.006Z,12.43
2022-12-31T14:34:38.065Z,16.48
2022-12-31T14:37:07.823Z,15.05
2022-12-31T14:40:02.174Z,12.95
2022-12-31T14:42:36.994Z,10.73
2022-12-31T14:45:27.988Z,11.02
2022-12-31T14:47:57.987Z,9.63
2022-12-31T14:50:29.499Z,10.77
2022-12-31T14:53:08.667Z,9.60
2022-12-31T14:55:40.995Z,11.18
2022-12-31T14:58:42.667Z,9.68
2022-12-31T15:01:15.978Z,11.40
2022-12-31T15:03:46.074Z,10.15
2022-12-31T15:06:37.917Z,13.38
2022-12-31T15:09:21.084Z,21.20
2022-12-31T15:12:12.145Z,9.68
2022-12-31T15:14:45.550Z,7.53
2022-12-31T15:17:19.011Z,7.90
2022-12-31T15:19:59.247Z,7.82
2022-12-31T15:22:46.073Z,8.07
2022-12-31T15:25:40.412Z,7.80
2022-12-31T15:28:31.273Z,9.38
2022-12-31T15:31:20.062Z,9.70
2022-12-31T15:33:57.406Z,11.70
2022-12-31T15:36:27.389Z,16.60
2022-12-31T15:39:06.697Z,15.48
2022-12-31T15:42:36.151Z,13.35
2022-12-31T15:44:51.066Z,7.82
2022-12-31T15:47:28.751Z,16.23
2022-12-31T15:49:56.100Z,15.55
2022-12-31T15:52:26.919Z,9.30
2022-12-31T15:54:57.647Z,14.17
2022-12-31T15:57:33.619Z,10.18
2022-12-31T16:00:02.330Z,8.02
2022-12-31T16:02:31.899Z,7.68
2022-12-31T16:04:59.123Z,5.93
2022-12-31T16:07:27.823Z,7.90
2022-12-31T16:09:56.809Z,6.80
2022-12-31T16:12:30.942Z,6.32
2022-12-31T16:15:00.639Z,7.50
2022-12-31T16:17:36.112Z,7.85
2022-12-31T16:20:23.962Z,7.00
2022-12-31T16:22:53.394Z,7.50
2022-12-31T16:25:36.811Z,6.45
2022-12-31T16:28:04.240Z,7.50
2022-12-31T16:30:32.807Z,7.63
2022-12-31T16:33:02.187Z,7.25
2022-12-31T16:35:34.782Z,9.52
2022-12-31T16:38:08.373Z,7.00
2022-12-31T16:40:35.717Z,7.05
2022-12-31T16:43:02.865Z,5.50
2022-12-31T16:45:33.633Z,6.35
2022-12-31T16:48:16.396Z,6.43
2022-12-31T16:50:45.898Z,4.65
2022-12-31T16:53:17.534Z,5.03
2022-12-31T16:55:52.285Z,5.57
2022-12-31T16:58:28.892Z,4.95
2022-12-31T17:01:02.918Z,4.40
2022-12-31T17:03:30.259Z,4.80
2022-12-31T17:06:11.034Z,6.10
2022-12-31T17:09:05.533Z,3.50
2022-12-31T17:11:39.397Z,6.60
2022-12-31T17:14:14.137Z,4.70
2022-12-31T17:17:03.319Z,5.25
2022-12-31T17:19:49.924Z,4.50
2022-12-31T17:22:32.830Z,4.50
2022-12-31T17:25:09.181Z,6.22
2022-12-31T17:27:36.720Z,5.97
2022-12-31T17:30:30.101Z,7.15
2022-12-31T17:33:09.288Z,5.63
2022-12-31T17:35:42.408Z,6.43
2022-12-31T17:38:21.662Z,7.97
2022-12-31T17:40:55.944Z,5.97
2022-12-31T17:43:23.884Z,5.30
2022-12-31T17:45:52.116Z,3.67
2022-12-31T17:48:20.278Z,3.90
2022-12-31T17:50:48.873Z,3.47
2022-12-31T17:53:16.487Z,2.58
2022-12-31T17:55:48.293Z,2.72
2022-12-31T18:00:46.702Z,4.45
2022-12-31T18:03:13.781Z,3.15
2022-12-31T18:05:40.736Z,2.20
2022-12-31T18:08:07.819Z,2.22
2022-12-31T18:10:37.338Z,2.72
2022-12-31T18:13:10.983Z,2.50
2022-12-31T18:15:37.942Z,3.03
2022-12-31T18:18:22.542Z,3.63
2022-12-31T18:20:58.762Z,2.38
2022-12-31T18:23:40.391Z,4.65
2022-12-31T18:26:08.815Z,2.38
2022-12-31T18:28:36.079Z,3.13
2022-12-31T18:31:03.296Z,3.63
2022-12-31T18:33:30.427Z,4.38
2022-12-31T18:36:08.816Z,3.40
2022-12-31T18:38:37.082Z,2.30
2022-12-31T18:41:04.937Z,3.05
2022-12-31T18:43:32.389Z,3.63
2022-12-31T18:45:59.405Z,5.30
2022-12-31T18:48:26.813Z,3.30
2022-12-31T18:50:53.970Z,4.25
2022-12-31T18:53:23.522Z,10.43
2022-12-31T18:55:55.576Z,5.68
2022-12-31T18:58:23.377Z,8.35
2022-12-31T19:00:51.090Z,5.93
2022-12-31T19:03:27.544Z,4.25
2022-12-31T19:05:54.831Z,5.28
2022-12-31T19:08:22.924Z,5.75
2022-12-31T19:10:51.582Z,5.00
2022-12-31T19:13:19.786Z,6.80
2022-12-31T19:15:52.446Z,3.53
2022-12-31T19:18:19.814Z,3.83
2022-12-31T19:20:46.834Z,6.68
2022-12-31T19:23:16.988Z,6.38
2022-12-31T19:25:44.992Z,3.60
2022-12-31T19:28:21.803Z,3.55
2022-12-31T19:30:49.125Z,3.90
2022-12-31T19:33:16.865Z,4.25
2022-12-31T19:35:44.277Z,2.78
2022-12-31T19:38:23.980Z,3.75
2022-12-31T19:40:52.146Z,5.00
2022-12-31T19:43:21.753Z,3.83
2022-12-31T19:45:49.565Z,4.50
2022-12-31T19:48:25.809Z,4.53
2022-12-31T19:50:55.939Z,5.32
2022-12-31T19:53:25.892Z,5.18
2022-12-31T19:55:53.308Z,4.55
2022-12-31T19:58:28.107Z,3.78
2022-12-31T20:01:02.403Z,4.72
2022-12-31T20:03:31.933Z,5.63
2022-12-31T20:06:04.714Z,5.43
2022-12-31T20:08:31.805Z,6.60
2022-12-31T20:10:59.243Z,5.30
2022-12-31T20:13:27.233Z,5.30
2022-12-31T20:15:54.541Z,3.38
2022-12-31T20:18:23.200Z,4.82
2022-12-31T20:20:55.532Z,5.03
2022-12-31T20:23:23.101Z,4.35
2022-12-31T20:26:19.576Z,3.40
2022-12-31T20:28:46.677Z,3.97
2022-12-31T20:31:16.221Z,4.38
2022-12-31T20:33:43.744Z,5.00
2022-12-31T20:36:13.296Z,3.90
2022-12-31T20:38:40.589Z,3.35
2022-12-31T20:41:29.058Z,3.53
2022-12-31T20:43:56.093Z,3.65
2022-12-31T20:46:25.162Z,4.20
2022-12-31T20:48:55.935Z,4.85
2022-12-31T20:51:24.022Z,3.65
2022-12-31T20:53:55.567Z,3.85
2022-12-31T20:56:23.462Z,3.92
2022-12-31T20:58:50.751Z,4.40
2022-12-31T21:01:18.695Z,4.38
2022-12-31T21:06:35.504Z,9.02
2022-12-31T21:09:04.727Z,8.90
2022-12-31T21:11:50.132Z,10.68
2022-12-31T21:14:17.114Z,16.85
2022-12-31T21:16:44.561Z,11.30
2022-12-31T21:19:12.263Z,6.93
2022-12-31T21:21:39.389Z,6.38
2022-12-31T21:24:06.709Z,6.00
2022-12-31T21:26:34.565Z,6.78
2022-12-31T21:29:01.493Z,7.63
2022-12-31T21:31:28.535Z,7.50
2022-12-31T21:33:55.826Z,9.75
2022-12-31T21:36:22.796Z,7.72
2022-12-31T21:38:49.852Z,8.25
2022-12-31T21:41:35.403Z,8.90
2022-12-31T21:44:02.642Z,7.35
2022-12-31T21:46:29.913Z,7.32
2022-12-31T21:49:00.486Z,6.53
2022-12-31T21:51:30.113Z,5.88
2022-12-31T21:53:57.665Z,5.53
2022-12-31T21:56:25.225Z,5.57
2022-12-31T21:59:17.238Z,4.38
2022-12-31T22:02:03.485Z,3.90
2022-12-31T22:07:18.997Z,3.58
2022-12-31T22:09:47.389Z,3.33
2022-12-31T22:12:14.608Z,3.40
2022-12-31T22:15:14.403Z,3.65
2022-12-31T22:17:28.679Z,3.70
2022-12-31T22:22:43.363Z,3.95
2022-12-31T22:25:10.747Z,2.15
2022-12-31T22:27:38.868Z,2.30
2022-12-31T22:30:07.177Z,2.22
2022-12-31T22:32:35.001Z,2.20
2022-12-31T22:35:03.805Z,2.72
2022-12-31T22:40:18.137Z,2.72
2022-12-31T22:42:45.236Z,2.45
2022-12-31T22:45:13.994Z,1.98
2022-12-31T22:47:41.213Z,4.88
2022-12-31T22:50:08.573Z,5.22
2022-12-31T22:52:35.724Z,4.57
2022-12-31T22:55:02.782Z,3.80
2022-12-31T22:57:29.819Z,16.90
2022-12-31T22:59:56.679Z,7.80
2022-12-31T23:02:23.694Z,29.77
2022-12-31T23:04:50.656Z,89.70
2022-12-31T23:07:17.793Z,193.85
2022-12-31T23:10:03.142Z,131.73
2022-12-31T23:12:30.169Z,86.70
2022-12-31T23:15:15.517Z,94.25
2022-12-31T23:18:01.251Z,57.65
2022-12-31T23:20:46.963Z,58.25
2022-12-31T23:23:17.251Z,50.45
2022-12-31T23:25:49.162Z,56.55
2022-12-31T23:30:47.293Z,33.70
2022-12-31T23:33:19.821Z,35.97
2022-12-31T23:35:47.237Z,23.55
2022-12-31T23:38:16.704Z,9.82
2022-12-31T23:40:44.100Z,8.40
2022-12-31T23:43:19.386Z,7.60
2022-12-31T23:45:46.309Z,32.92
2022-12-31T23:48:13.255Z,27.90
2022-12-31T23:50:41.007Z,24.25
2022-12-31T23:53:08.071Z,16.83
2022-12-31T23:55:35.055Z,9.63
2022-12-31T23:58:01.999Z,11.35
